Terminal Aerodrome Forecast
Issued by NWS Cleveland, OH

Home | Current Version | Previous Version | Text Only | Print | Product List | Glossary Off
Versions: 1 2 3 4 5 6 7 8 9 10 11 12 13 14 15 16 17 18 19

000
FTUS41 KCLE 031100
TAFERI
TAF
KERI 031130Z 0312/0412 15010KT P6SM OVC080
     FM031600 16012KT 4SM -SN SCT018 BKN025 OVC040
     FM031900 16014G20KT 5SM -FZRASN BKN018 OVC025
     FM032200 18015G22KT 2SM -RA BR OVC008
     FM040300 20015G25KT 4SM -SHRA BR OVC008
     FM040800 25014G22KT 4SM -SN BR OVC012=

USA.gov is the U.S. government's official web portal to all federal, state and local government web resources and services.